sensor_id;sensor_type;location;lat;lon;timestamp;P1;durP1;ratioP1;P2;durP2;ratioP2
16737;SDS011;17906;47.684;10.806;2022-10-31T00:00:30;8.73;;;2.73;;
16737;SDS011;17906;47.684;10.806;2022-10-31T00:02:57;6.33;;;2.87;;
16737;SDS011;17906;47.684;10.806;2022-10-31T00:05:24;12.87;;;2.77;;
16737;SDS011;17906;47.684;10.806;2022-10-31T00:07:51;6.00;;;2.67;;
16737;SDS011;17906;47.684;10.806;2022-10-31T00:10:19;7.50;;;2.40;;
16737;SDS011;17906;47.684;10.806;2022-10-31T00:12:46;7.40;;;2.40;;
16737;SDS011;17906;47.684;10.806;2022-10-31T00:15:13;4.50;;;1.83;;
16737;SDS011;17906;47.684;10.806;2022-10-31T00:17:39;9.87;;;2.13;;
16737;SDS011;17906;47.684;10.806;2022-10-31T00:20:06;5.20;;;2.17;;
16737;SDS011;17906;47.684;10.806;2022-10-31T00:22:34;5.73;;;2.70;;
16737;SDS011;17906;47.684;10.806;2022-10-31T00:25:01;8.43;;;1.57;;
16737;SDS011;17906;47.684;10.806;2022-10-31T00:27:29;7.33;;;2.40;;
16737;SDS011;17906;47.684;10.806;2022-10-31T00:29:56;7.70;;;1.87;;
16737;SDS011;17906;47.684;10.806;2022-10-31T00:32:22;5.70;;;2.00;;
16737;SDS011;17906;47.684;10.806;2022-10-31T00:34:49;9.73;;;2.07;;
16737;SDS011;17906;47.684;10.806;2022-10-31T00:37:15;7.90;;;3.23;;
16737;SDS011;17906;47.684;10.806;2022-10-31T00:39:42;4.00;;;1.87;;
16737;SDS011;17906;47.684;10.806;2022-10-31T00:42:10;3.67;;;1.80;;
16737;SDS011;17906;47.684;10.806;2022-10-31T00:44:38;8.50;;;1.83;;
16737;SDS011;17906;47.684;10.806;2022-10-31T00:47:04;5.47;;;1.73;;
16737;SDS011;17906;47.684;10.806;2022-10-31T00:49:31;3.60;;;1.90;;
16737;SDS011;17906;47.684;10.806;2022-10-31T00:51:58;5.63;;;1.80;;
16737;SDS011;17906;47.684;10.806;2022-10-31T00:54:24;5.03;;;1.70;;
16737;SDS011;17906;47.684;10.806;2022-10-31T00:56:51;2.67;;;1.57;;
16737;SDS011;17906;47.684;10.806;2022-10-31T00:59:18;4.63;;;1.70;;
16737;SDS011;17906;47.684;10.806;2022-10-31T01:01:46;10.13;;;2.40;;
16737;SDS011;17906;47.684;10.806;2022-10-31T01:04:13;7.33;;;2.00;;
16737;SDS011;17906;47.684;10.806;2022-10-31T01:06:39;5.20;;;1.57;;
16737;SDS011;17906;47.684;10.806;2022-10-31T01:09:06;7.60;;;2.27;;
16737;SDS011;17906;47.684;10.806;2022-10-31T01:11:33;8.13;;;2.30;;
16737;SDS011;17906;47.684;10.806;2022-10-31T01:14:00;8.27;;;2.10;;
16737;SDS011;17906;47.684;10.806;2022-10-31T01:16:26;4.53;;;1.57;;
16737;SDS011;17906;47.684;10.806;2022-10-31T01:18:56;9.13;;;1.80;;
16737;SDS011;17906;47.684;10.806;2022-10-31T01:21:23;4.17;;;1.80;;
16737;SDS011;17906;47.684;10.806;2022-10-31T01:23:52;6.60;;;1.73;;
16737;SDS011;17906;47.684;10.806;2022-10-31T01:26:21;4.07;;;1.97;;
16737;SDS011;17906;47.684;10.806;2022-10-31T01:28:50;7.53;;;2.00;;
16737;SDS011;17906;47.684;10.806;2022-10-31T01:31:18;11.47;;;1.90;;
16737;SDS011;17906;47.684;10.806;2022-10-31T01:33:47;4.53;;;1.70;;
16737;SDS011;17906;47.684;10.806;2022-10-31T01:36:16;8.47;;;2.00;;
16737;SDS011;17906;47.684;10.806;2022-10-31T01:38:45;3.13;;;1.80;;
16737;SDS011;17906;47.684;10.806;2022-10-31T01:41:13;3.33;;;1.67;;
16737;SDS011;17906;47.684;10.806;2022-10-31T01:43:46;4.67;;;1.90;;
16737;SDS011;17906;47.684;10.806;2022-10-31T01:46:15;4.93;;;1.77;;
16737;SDS011;17906;47.684;10.806;2022-10-31T01:48:45;5.67;;;1.50;;
16737;SDS011;17906;47.684;10.806;2022-10-31T01:51:13;2.47;;;1.43;;
16737;SDS011;17906;47.684;10.806;2022-10-31T01:53:44;6.20;;;1.20;;
16737;SDS011;17906;47.684;10.806;2022-10-31T01:56:12;4.63;;;1.30;;
16737;SDS011;17906;47.684;10.806;2022-10-31T01:58:40;5.60;;;1.37;;
16737;SDS011;17906;47.684;10.806;2022-10-31T02:01:08;4.90;;;1.60;;
16737;SDS011;17906;47.684;10.806;2022-10-31T02:03:36;5.03;;;1.50;;
16737;SDS011;17906;47.684;10.806;2022-10-31T02:06:03;6.90;;;2.00;;
16737;SDS011;17906;47.684;10.806;2022-10-31T02:08:38;6.30;;;1.60;;
16737;SDS011;17906;47.684;10.806;2022-10-31T02:11:06;4.33;;;1.60;;
16737;SDS011;17906;47.684;10.806;2022-10-31T02:13:34;2.77;;;1.33;;
16737;SDS011;17906;47.684;10.806;2022-10-31T02:16:01;5.80;;;2.07;;
16737;SDS011;17906;47.684;10.806;2022-10-31T02:18:28;6.10;;;2.03;;
16737;SDS011;17906;47.684;10.806;2022-10-31T02:21:01;5.40;;;1.33;;
16737;SDS011;17906;47.684;10.806;2022-10-31T02:26:43;9.37;;;2.00;;
16737;SDS011;17906;47.684;10.806;2022-10-31T02:29:29;8.63;;;2.27;;
16737;SDS011;17906;47.684;10.806;2022-10-31T02:32:33;6.63;;;2.20;;
16737;SDS011;17906;47.684;10.806;2022-10-31T02:35:12;5.87;;;1.70;;
16737;SDS011;17906;47.684;10.806;2022-10-31T02:37:48;7.07;;;1.80;;
16737;SDS011;17906;47.684;10.806;2022-10-31T02:40:23;7.70;;;2.23;;
16737;SDS011;17906;47.684;10.806;2022-10-31T02:42:55;3.13;;;1.43;;
16737;SDS011;17906;47.684;10.806;2022-10-31T02:45:30;3.00;;;1.30;;
16737;SDS011;17906;47.684;10.806;2022-10-31T02:48:03;9.17;;;1.80;;
16737;SDS011;17906;47.684;10.806;2022-10-31T02:50:37;4.07;;;1.57;;
16737;SDS011;17906;47.684;10.806;2022-10-31T02:53:08;10.93;;;2.17;;
16737;SDS011;17906;47.684;10.806;2022-10-31T02:55:47;7.87;;;1.70;;
16737;SDS011;17906;47.684;10.806;2022-10-31T02:58:18;11.10;;;2.10;;
16737;SDS011;17906;47.684;10.806;2022-10-31T03:00:50;4.00;;;1.90;;
16737;SDS011;17906;47.684;10.806;2022-10-31T03:03:31;5.53;;;1.60;;
16737;SDS011;17906;47.684;10.806;2022-10-31T03:06:03;4.77;;;1.63;;
16737;SDS011;17906;47.684;10.806;2022-10-31T03:08:35;7.60;;;1.70;;
16737;SDS011;17906;47.684;10.806;2022-10-31T03:11:09;7.27;;;1.93;;
16737;SDS011;17906;47.684;10.806;2022-10-31T03:13:39;5.30;;;1.50;;
16737;SDS011;17906;47.684;10.806;2022-10-31T03:16:09;3.97;;;1.77;;
16737;SDS011;17906;47.684;10.806;2022-10-31T03:18:42;7.03;;;1.67;;
16737;SDS011;17906;47.684;10.806;2022-10-31T03:21:14;8.97;;;1.93;;
16737;SDS011;17906;47.684;10.806;2022-10-31T03:23:43;4.80;;;1.43;;
16737;SDS011;17906;47.684;10.806;2022-10-31T03:26:12;5.83;;;1.47;;
16737;SDS011;17906;47.684;10.806;2022-10-31T03:28:41;5.63;;;1.47;;
16737;SDS011;17906;47.684;10.806;2022-10-31T03:31:13;7.00;;;1.50;;
16737;SDS011;17906;47.684;10.806;2022-10-31T03:33:45;6.47;;;1.47;;
16737;SDS011;17906;47.684;10.806;2022-10-31T03:36:14;7.27;;;1.63;;
16737;SDS011;17906;47.684;10.806;2022-10-31T03:38:42;5.77;;;1.70;;
16737;SDS011;17906;47.684;10.806;2022-10-31T03:41:13;2.63;;;1.37;;
16737;SDS011;17906;47.684;10.806;2022-10-31T03:43:46;7.50;;;1.70;;
16737;SDS011;17906;47.684;10.806;2022-10-31T03:46:19;6.17;;;1.73;;
16737;SDS011;17906;47.684;10.806;2022-10-31T03:48:47;6.20;;;2.30;;
16737;SDS011;17906;47.684;10.806;2022-10-31T03:51:15;3.03;;;1.77;;
16737;SDS011;17906;47.684;10.806;2022-10-31T03:53:50;4.27;;;1.43;;
16737;SDS011;17906;47.684;10.806;2022-10-31T03:56:22;7.00;;;1.77;;
16737;SDS011;17906;47.684;10.806;2022-10-31T03:58:57;6.07;;;1.87;;
16737;SDS011;17906;47.684;10.806;2022-10-31T04:01:26;5.97;;;1.50;;
16737;SDS011;17906;47.684;10.806;2022-10-31T04:03:59;18.93;;;4.23;;
16737;SDS011;17906;47.684;10.806;2022-10-31T04:06:26;5.37;;;1.53;;
16737;SDS011;17906;47.684;10.806;2022-10-31T04:08:56;5.33;;;1.40;;
16737;SDS011;17906;47.684;10.806;2022-10-31T04:11:28;6.17;;;1.43;;
16737;SDS011;17906;47.684;10.806;2022-10-31T04:13:57;2.07;;;1.00;;
16737;SDS011;17906;47.684;10.806;2022-10-31T04:16:26;3.50;;;1.40;;
16737;SDS011;17906;47.684;10.806;2022-10-31T04:18:53;5.53;;;1.27;;
16737;SDS011;17906;47.684;10.806;2022-10-31T04:21:27;3.33;;;1.37;;
16737;SDS011;17906;47.684;10.806;2022-10-31T04:23:55;5.33;;;1.30;;
16737;SDS011;17906;47.684;10.806;2022-10-31T04:26:22;4.17;;;1.27;;
16737;SDS011;17906;47.684;10.806;2022-10-31T04:28:48;2.47;;;1.10;;
16737;SDS011;17906;47.684;10.806;2022-10-31T04:31:15;3.53;;;1.40;;
16737;SDS011;17906;47.684;10.806;2022-10-31T04:33:42;5.97;;;1.30;;
16737;SDS011;17906;47.684;10.806;2022-10-31T04:36:09;5.07;;;1.10;;
16737;SDS011;17906;47.684;10.806;2022-10-31T04:38:37;3.73;;;1.10;;
16737;SDS011;17906;47.684;10.806;2022-10-31T04:41:04;4.53;;;1.30;;
16737;SDS011;17906;47.684;10.806;2022-10-31T04:43:30;7.10;;;1.50;;
16737;SDS011;17906;47.684;10.806;2022-10-31T04:45:57;5.43;;;1.30;;
16737;SDS011;17906;47.684;10.806;2022-10-31T04:48:24;5.33;;;1.40;;
16737;SDS011;17906;47.684;10.806;2022-10-31T04:50:50;3.20;;;1.23;;
16737;SDS011;17906;47.684;10.806;2022-10-31T04:53:17;6.93;;;1.70;;
16737;SDS011;17906;47.684;10.806;2022-10-31T04:55:45;7.93;;;1.60;;
16737;SDS011;17906;47.684;10.806;2022-10-31T04:58:11;5.67;;;1.87;;
16737;SDS011;17906;47.684;10.806;2022-10-31T05:00:38;4.03;;;1.30;;
16737;SDS011;17906;47.684;10.806;2022-10-31T05:03:05;5.57;;;1.33;;
16737;SDS011;17906;47.684;10.806;2022-10-31T05:05:31;4.40;;;1.50;;
16737;SDS011;17906;47.684;10.806;2022-10-31T05:07:58;19.57;;;1.70;;
16737;SDS011;17906;47.684;10.806;2022-10-31T05:10:25;7.30;;;1.57;;
16737;SDS011;17906;47.684;10.806;2022-10-31T05:12:55;4.97;;;1.30;;
16737;SDS011;17906;47.684;10.806;2022-10-31T05:15:24;5.00;;;1.33;;
16737;SDS011;17906;47.684;10.806;2022-10-31T05:17:52;4.97;;;1.43;;
16737;SDS011;17906;47.684;10.806;2022-10-31T05:20:21;5.77;;;1.50;;
16737;SDS011;17906;47.684;10.806;2022-10-31T05:22:51;6.20;;;1.67;;
16737;SDS011;17906;47.684;10.806;2022-10-31T05:25:19;4.33;;;1.20;;
16737;SDS011;17906;47.684;10.806;2022-10-31T05:27:48;4.63;;;1.23;;
16737;SDS011;17906;47.684;10.806;2022-10-31T05:30:18;7.87;;;1.40;;
16737;SDS011;17906;47.684;10.806;2022-10-31T05:32:47;4.90;;;1.10;;
16737;SDS011;17906;47.684;10.806;2022-10-31T05:35:16;6.37;;;1.53;;
16737;SDS011;17906;47.684;10.806;2022-10-31T05:37:43;6.20;;;1.77;;
16737;SDS011;17906;47.684;10.806;2022-10-31T05:40:11;3.77;;;1.33;;
16737;SDS011;17906;47.684;10.806;2022-10-31T05:42:39;5.13;;;1.30;;
16737;SDS011;17906;47.684;10.806;2022-10-31T05:45:07;3.50;;;1.40;;
16737;SDS011;17906;47.684;10.806;2022-10-31T05:47:36;3.50;;;1.40;;
16737;SDS011;17906;47.684;10.806;2022-10-31T05:50:02;5.17;;;1.43;;
16737;SDS011;17906;47.684;10.806;2022-10-31T05:52:30;3.50;;;1.40;;
16737;SDS011;17906;47.684;10.806;2022-10-31T05:54:57;5.20;;;1.43;;
16737;SDS011;17906;47.684;10.806;2022-10-31T05:57:23;4.80;;;1.50;;
16737;SDS011;17906;47.684;10.806;2022-10-31T05:59:50;3.63;;;1.27;;
16737;SDS011;17906;47.684;10.806;2022-10-31T06:02:18;3.30;;;1.43;;
16737;SDS011;17906;47.684;10.806;2022-10-31T06:04:45;4.03;;;1.50;;
16737;SDS011;17906;47.684;10.806;2022-10-31T06:07:12;6.53;;;1.70;;
16737;SDS011;17906;47.684;10.806;2022-10-31T06:09:39;7.67;;;1.60;;
16737;SDS011;17906;47.684;10.806;2022-10-31T06:12:06;7.73;;;2.00;;
16737;SDS011;17906;47.684;10.806;2022-10-31T06:14:32;5.43;;;1.90;;
16737;SDS011;17906;47.684;10.806;2022-10-31T06:16:59;5.33;;;1.63;;
16737;SDS011;17906;47.684;10.806;2022-10-31T06:19:26;10.20;;;1.70;;
16737;SDS011;17906;47.684;10.806;2022-10-31T06:21:54;7.43;;;1.70;;
16737;SDS011;17906;47.684;10.806;2022-10-31T06:24:21;3.67;;;1.50;;
16737;SDS011;17906;47.684;10.806;2022-10-31T06:26:47;2.50;;;1.20;;
16737;SDS011;17906;47.684;10.806;2022-10-31T06:29:14;3.70;;;1.30;;
16737;SDS011;17906;47.684;10.806;2022-10-31T06:31:41;4.07;;;0.90;;
16737;SDS011;17906;47.684;10.806;2022-10-31T06:34:07;3.67;;;1.40;;
16737;SDS011;17906;47.684;10.806;2022-10-31T06:36:34;3.30;;;1.30;;
16737;SDS011;17906;47.684;10.806;2022-10-31T06:39:03;6.40;;;1.80;;
16737;SDS011;17906;47.684;10.806;2022-10-31T06:41:29;4.17;;;1.40;;
16737;SDS011;17906;47.684;10.806;2022-10-31T06:43:56;5.77;;;1.60;;
16737;SDS011;17906;47.684;10.806;2022-10-31T06:46:23;6.23;;;1.90;;
16737;SDS011;17906;47.684;10.806;2022-10-31T06:48:49;5.77;;;1.90;;
16737;SDS011;17906;47.684;10.806;2022-10-31T06:51:16;6.53;;;2.13;;
16737;SDS011;17906;47.684;10.806;2022-10-31T06:53:43;2.97;;;1.37;;
16737;SDS011;17906;47.684;10.806;2022-10-31T06:56:11;5.53;;;1.60;;
16737;SDS011;17906;47.684;10.806;2022-10-31T06:58:37;4.37;;;1.53;;
16737;SDS011;17906;47.684;10.806;2022-10-31T07:01:04;5.93;;;2.07;;
16737;SDS011;17906;47.684;10.806;2022-10-31T07:03:31;6.17;;;2.30;;
16737;SDS011;17906;47.684;10.806;2022-10-31T07:05:58;6.77;;;2.50;;
16737;SDS011;17906;47.684;10.806;2022-10-31T07:08:24;3.67;;;1.70;;
16737;SDS011;17906;47.684;10.806;2022-10-31T07:10:52;5.30;;;1.63;;
16737;SDS011;17906;47.684;10.806;2022-10-31T07:13:21;8.10;;;1.70;;
16737;SDS011;17906;47.684;10.806;2022-10-31T07:15:51;3.27;;;1.73;;
16737;SDS011;17906;47.684;10.806;2022-10-31T07:18:18;7.17;;;1.90;;
16737;SDS011;17906;47.684;10.806;2022-10-31T07:20:46;4.90;;;2.20;;
16737;SDS011;17906;47.684;10.806;2022-10-31T07:23:13;5.73;;;2.70;;
16737;SDS011;17906;47.684;10.806;2022-10-31T07:25:40;16.73;;;4.50;;
16737;SDS011;17906;47.684;10.806;2022-10-31T07:28:07;10.70;;;4.40;;
16737;SDS011;17906;47.684;10.806;2022-10-31T07:30:37;11.97;;;5.57;;
16737;SDS011;17906;47.684;10.806;2022-10-31T07:33:04;11.63;;;4.80;;
16737;SDS011;17906;47.684;10.806;2022-10-31T07:35:31;10.40;;;4.67;;
16737;SDS011;17906;47.684;10.806;2022-10-31T07:38:06;13.20;;;4.80;;
16737;SDS011;17906;47.684;10.806;2022-10-31T07:40:33;12.43;;;5.83;;
16737;SDS011;17906;47.684;10.806;2022-10-31T07:43:00;11.93;;;5.20;;
16737;SDS011;17906;47.684;10.806;2022-10-31T07:45:26;13.93;;;6.20;;
16737;SDS011;17906;47.684;10.806;2022-10-31T07:47:54;14.27;;;6.43;;
16737;SDS011;17906;47.684;10.806;2022-10-31T07:50:22;19.30;;;8.43;;
16737;SDS011;17906;47.684;10.806;2022-10-31T07:52:57;53.93;;;26.80;;
16737;SDS011;17906;47.684;10.806;2022-10-31T07:55:25;31.30;;;15.60;;
16737;SDS011;17906;47.684;10.806;2022-10-31T07:57:56;30.87;;;15.97;;
16737;SDS011;17906;47.684;10.806;2022-10-31T08:00:24;31.47;;;16.83;;
16737;SDS011;17906;47.684;10.806;2022-10-31T08:02:57;24.67;;;11.97;;
16737;SDS011;17906;47.684;10.806;2022-10-31T08:05:24;16.37;;;8.87;;
16737;SDS011;17906;47.684;10.806;2022-10-31T08:07:51;18.23;;;9.00;;
16737;SDS011;17906;47.684;10.806;2022-10-31T08:10:18;14.43;;;7.23;;
16737;SDS011;17906;47.684;10.806;2022-10-31T08:12:45;13.23;;;6.23;;
16737;SDS011;17906;47.684;10.806;2022-10-31T08:15:12;15.03;;;5.60;;
16737;SDS011;17906;47.684;10.806;2022-10-31T08:17:39;12.23;;;4.97;;
16737;SDS011;17906;47.684;10.806;2022-10-31T08:20:08;16.13;;;4.30;;
16737;SDS011;17906;47.684;10.806;2022-10-31T08:22:35;12.73;;;4.57;;
16737;SDS011;17906;47.684;10.806;2022-10-31T08:25:01;12.63;;;5.80;;
16737;SDS011;17906;47.684;10.806;2022-10-31T08:27:28;17.83;;;8.23;;
16737;SDS011;17906;47.684;10.806;2022-10-31T08:29:55;13.63;;;6.87;;
16737;SDS011;17906;47.684;10.806;2022-10-31T08:32:22;16.80;;;6.80;;
16737;SDS011;17906;47.684;10.806;2022-10-31T08:34:49;12.13;;;6.23;;
16737;SDS011;17906;47.684;10.806;2022-10-31T08:37:17;11.93;;;5.80;;
16737;SDS011;17906;47.684;10.806;2022-10-31T08:39:45;10.70;;;5.00;;
16737;SDS011;17906;47.684;10.806;2022-10-31T08:42:12;13.57;;;4.63;;
16737;SDS011;17906;47.684;10.806;2022-10-31T08:44:38;14.07;;;5.30;;
16737;SDS011;17906;47.684;10.806;2022-10-31T08:47:05;13.77;;;5.55;;
16737;SDS011;17906;47.684;10.806;2022-10-31T08:49:32;9.02;;;4.45;;
16737;SDS011;17906;47.684;10.806;2022-10-31T08:51:58;8.07;;;3.60;;
16737;SDS011;17906;47.684;10.806;2022-10-31T08:54:26;9.40;;;3.55;;
16737;SDS011;17906;47.684;10.806;2022-10-31T08:56:53;8.57;;;3.50;;
16737;SDS011;17906;47.684;10.806;2022-10-31T08:59:21;8.90;;;3.17;;
16737;SDS011;17906;47.684;10.806;2022-10-31T09:01:47;7.28;;;2.58;;
16737;SDS011;17906;47.684;10.806;2022-10-31T09:04:14;8.60;;;3.70;;
16737;SDS011;17906;47.684;10.806;2022-10-31T09:06:41;7.82;;;2.50;;
16737;SDS011;17906;47.684;10.806;2022-10-31T09:09:07;8.82;;;2.63;;
16737;SDS011;17906;47.684;10.806;2022-10-31T09:11:36;8.32;;;2.80;;
16737;SDS011;17906;47.684;10.806;2022-10-31T09:14:03;7.45;;;3.00;;
16737;SDS011;17906;47.684;10.806;2022-10-31T09:16:29;8.60;;;2.25;;
16737;SDS011;17906;47.684;10.806;2022-10-31T09:18:56;6.95;;;2.30;;
16737;SDS011;17906;47.684;10.806;2022-10-31T09:21:23;6.25;;;2.30;;
16737;SDS011;17906;47.684;10.806;2022-10-31T09:23:49;10.45;;;2.70;;
16737;SDS011;17906;47.684;10.806;2022-10-31T09:26:19;5.55;;;2.15;;
16737;SDS011;17906;47.684;10.806;2022-10-31T09:28:47;6.85;;;2.58;;
16737;SDS011;17906;47.684;10.806;2022-10-31T09:31:14;7.28;;;2.30;;
16737;SDS011;17906;47.684;10.806;2022-10-31T09:33:41;10.48;;;2.45;;
16737;SDS011;17906;47.684;10.806;2022-10-31T09:36:08;7.05;;;2.35;;
16737;SDS011;17906;47.684;10.806;2022-10-31T09:38:34;7.68;;;1.98;;
16737;SDS011;17906;47.684;10.806;2022-10-31T09:41:03;8.52;;;2.58;;
16737;SDS011;17906;47.684;10.806;2022-10-31T09:43:43;8.20;;;2.22;;
16737;SDS011;17906;47.684;10.806;2022-10-31T09:46:18;5.45;;;1.80;;
16737;SDS011;17906;47.684;10.806;2022-10-31T09:48:56;5.70;;;2.20;;
16737;SDS011;17906;47.684;10.806;2022-10-31T09:51:37;8.45;;;1.90;;
16737;SDS011;17906;47.684;10.806;2022-10-31T09:54:08;8.13;;;2.53;;
16737;SDS011;17906;47.684;10.806;2022-10-31T09:56:38;9.82;;;2.65;;
16737;SDS011;17906;47.684;10.806;2022-10-31T09:59:10;12.30;;;2.63;;
16737;SDS011;17906;47.684;10.806;2022-10-31T10:01:43;8.20;;;2.25;;
16737;SDS011;17906;47.684;10.806;2022-10-31T10:04:20;9.50;;;2.65;;
16737;SDS011;17906;47.684;10.806;2022-10-31T10:07:01;9.13;;;2.20;;
16737;SDS011;17906;47.684;10.806;2022-10-31T10:09:37;5.82;;;1.98;;
16737;SDS011;17906;47.684;10.806;2022-10-31T10:12:08;5.88;;;1.50;;
16737;SDS011;17906;47.684;10.806;2022-10-31T10:14:49;8.82;;;2.10;;
16737;SDS011;17906;47.684;10.806;2022-10-31T10:17:36;8.02;;;1.85;;
16737;SDS011;17906;47.684;10.806;2022-10-31T10:20:12;6.35;;;2.13;;
16737;SDS011;17906;47.684;10.806;2022-10-31T10:22:47;7.53;;;2.08;;
16737;SDS011;17906;47.684;10.806;2022-10-31T10:25:20;8.98;;;2.30;;
16737;SDS011;17906;47.684;10.806;2022-10-31T10:27:50;6.63;;;1.92;;
16737;SDS011;17906;47.684;10.806;2022-10-31T10:30:26;9.75;;;1.90;;
16737;SDS011;17906;47.684;10.806;2022-10-31T10:33:00;11.63;;;2.40;;
16737;SDS011;17906;47.684;10.806;2022-10-31T10:35:32;19.90;;;3.03;;
16737;SDS011;17906;47.684;10.806;2022-10-31T10:38:02;7.80;;;2.08;;
16737;SDS011;17906;47.684;10.806;2022-10-31T10:40:35;10.90;;;3.03;;
16737;SDS011;17906;47.684;10.806;2022-10-31T10:43:20;7.80;;;2.40;;
16737;SDS011;17906;47.684;10.806;2022-10-31T10:45:52;16.15;;;2.72;;
16737;SDS011;17906;47.684;10.806;2022-10-31T10:48:58;9.43;;;2.58;;
16737;SDS011;17906;47.684;10.806;2022-10-31T10:51:33;11.07;;;2.63;;
16737;SDS011;17906;47.684;10.806;2022-10-31T10:57:11;5.25;;;2.05;;
16737;SDS011;17906;47.684;10.806;2022-10-31T10:59:47;9.55;;;2.30;;
16737;SDS011;17906;47.684;10.806;2022-10-31T11:02:17;10.00;;;3.45;;
16737;SDS011;17906;47.684;10.806;2022-10-31T11:04:47;9.18;;;2.13;;
16737;SDS011;17906;47.684;10.806;2022-10-31T11:07:17;8.75;;;2.63;;
16737;SDS011;17906;47.684;10.806;2022-10-31T11:09:44;10.25;;;2.47;;
16737;SDS011;17906;47.684;10.806;2022-10-31T11:12:16;13.80;;;2.25;;
16737;SDS011;17906;47.684;10.806;2022-10-31T11:14:46;11.10;;;2.45;;
16737;SDS011;17906;47.684;10.806;2022-10-31T11:17:20;8.80;;;2.42;;
16737;SDS011;17906;47.684;10.806;2022-10-31T11:20:01;7.85;;;2.40;;
16737;SDS011;17906;47.684;10.806;2022-10-31T11:22:59;7.25;;;2.20;;
16737;SDS011;17906;47.684;10.806;2022-10-31T11:25:29;6.40;;;2.25;;
16737;SDS011;17906;47.684;10.806;2022-10-31T11:27:59;4.45;;;2.20;;
16737;SDS011;17906;47.684;10.806;2022-10-31T11:30:26;21.77;;;3.47;;
16737;SDS011;17906;47.684;10.806;2022-10-31T11:32:55;15.52;;;3.17;;
16737;SDS011;17906;47.684;10.806;2022-10-31T11:35:22;7.35;;;2.63;;
16737;SDS011;17906;47.684;10.806;2022-10-31T11:37:51;11.52;;;2.55;;
16737;SDS011;17906;47.684;10.806;2022-10-31T11:40:21;16.58;;;2.72;;
16737;SDS011;17906;47.684;10.806;2022-10-31T11:42:49;10.13;;;2.78;;
16737;SDS011;17906;47.684;10.806;2022-10-31T11:45:19;8.50;;;3.08;;
16737;SDS011;17906;47.684;10.806;2022-10-31T11:47:57;8.40;;;2.45;;
16737;SDS011;17906;47.684;10.806;2022-10-31T11:50:33;25.05;;;8.73;;
16737;SDS011;17906;47.684;10.806;2022-10-31T11:53:03;13.43;;;5.53;;
16737;SDS011;17906;47.684;10.806;2022-10-31T11:55:38;11.15;;;4.25;;
16737;SDS011;17906;47.684;10.806;2022-10-31T11:58:18;14.63;;;5.30;;
16737;SDS011;17906;47.684;10.806;2022-10-31T12:00:48;19.10;;;6.10;;
16737;SDS011;17906;47.684;10.806;2022-10-31T12:03:23;23.48;;;6.88;;
16737;SDS011;17906;47.684;10.806;2022-10-31T12:05:58;12.52;;;3.25;;
16737;SDS011;17906;47.684;10.806;2022-10-31T12:08:29;11.02;;;4.30;;
16737;SDS011;17906;47.684;10.806;2022-10-31T12:10:58;10.18;;;4.35;;
16737;SDS011;17906;47.684;10.806;2022-10-31T12:13:32;8.68;;;3.22;;
16737;SDS011;17906;47.684;10.806;2022-10-31T12:16:02;8.05;;;2.78;;
16737;SDS011;17906;47.684;10.806;2022-10-31T12:18:43;10.75;;;2.65;;
16737;SDS011;17906;47.684;10.806;2022-10-31T12:21:21;8.05;;;2.80;;
16737;SDS011;17906;47.684;10.806;2022-10-31T12:24:13;12.27;;;3.03;;
16737;SDS011;17906;47.684;10.806;2022-10-31T12:26:50;13.27;;;3.00;;
16737;SDS011;17906;47.684;10.806;2022-10-31T12:29:30;9.63;;;2.63;;
16737;SDS011;17906;47.684;10.806;2022-10-31T12:32:17;12.10;;;5.13;;
16737;SDS011;17906;47.684;10.806;2022-10-31T12:38:25;10.10;;;2.50;;
16737;SDS011;17906;47.684;10.806;2022-10-31T12:41:09;9.73;;;2.70;;
16737;SDS011;17906;47.684;10.806;2022-10-31T12:43:46;14.18;;;2.90;;
16737;SDS011;17906;47.684;10.806;2022-10-31T12:46:24;11.57;;;2.53;;
16737;SDS011;17906;47.684;10.806;2022-10-31T12:49:09;5.53;;;2.42;;
16737;SDS011;17906;47.684;10.806;2022-10-31T12:51:48;6.78;;;2.33;;
16737;SDS011;17906;47.684;10.806;2022-10-31T12:57:22;8.50;;;2.78;;
16737;SDS011;17906;47.684;10.806;2022-10-31T12:59:56;13.90;;;2.60;;
16737;SDS011;17906;47.684;10.806;2022-10-31T13:02:26;5.35;;;1.95;;
16737;SDS011;17906;47.684;10.806;2022-10-31T13:04:58;8.18;;;2.83;;
16737;SDS011;17906;47.684;10.806;2022-10-31T13:07:29;10.43;;;2.55;;
16737;SDS011;17906;47.684;10.806;2022-10-31T13:10:01;10.45;;;2.53;;
16737;SDS011;17906;47.684;10.806;2022-10-31T13:12:34;8.05;;;2.42;;
16737;SDS011;17906;47.684;10.806;2022-10-31T13:15:03;6.25;;;2.83;;
16737;SDS011;17906;47.684;10.806;2022-10-31T13:17:34;6.25;;;2.25;;
16737;SDS011;17906;47.684;10.806;2022-10-31T13:20:22;9.18;;;2.63;;
16737;SDS011;17906;47.684;10.806;2022-10-31T13:22:53;11.57;;;2.63;;
16737;SDS011;17906;47.684;10.806;2022-10-31T13:25:24;9.70;;;2.65;;
16737;SDS011;17906;47.684;10.806;2022-10-31T13:27:54;6.00;;;2.83;;
16737;SDS011;17906;47.684;10.806;2022-10-31T13:30:24;11.00;;;3.05;;
16737;SDS011;17906;47.684;10.806;2022-10-31T13:32:54;13.25;;;2.80;;
16737;SDS011;17906;47.684;10.806;2022-10-31T13:35:26;7.90;;;2.33;;
16737;SDS011;17906;47.684;10.806;2022-10-31T13:38:05;10.57;;;2.45;;
16737;SDS011;17906;47.684;10.806;2022-10-31T13:40:44;9.65;;;2.30;;
16737;SDS011;17906;47.684;10.806;2022-10-31T13:43:19;8.45;;;2.67;;
16737;SDS011;17906;47.684;10.806;2022-10-31T13:45:52;11.48;;;2.42;;
16737;SDS011;17906;47.684;10.806;2022-10-31T13:51:11;6.82;;;2.38;;
16737;SDS011;17906;47.684;10.806;2022-10-31T13:53:38;15.13;;;2.95;;
16737;SDS011;17906;47.684;10.806;2022-10-31T13:56:28;12.73;;;2.42;;
16737;SDS011;17906;47.684;10.806;2022-10-31T13:59:02;8.60;;;2.42;;
16737;SDS011;17906;47.684;10.806;2022-10-31T14:01:45;7.63;;;2.20;;
16737;SDS011;17906;47.684;10.806;2022-10-31T14:04:14;9.60;;;2.88;;
16737;SDS011;17906;47.684;10.806;2022-10-31T14:06:44;13.00;;;2.83;;
16737;SDS011;17906;47.684;10.806;2022-10-31T14:09:21;13.07;;;2.60;;
16737;SDS011;17906;47.684;10.806;2022-10-31T14:11:56;11.43;;;2.88;;
16737;SDS011;17906;47.684;10.806;2022-10-31T14:14:28;9.60;;;2.17;;
16737;SDS011;17906;47.684;10.806;2022-10-31T14:16:59;12.57;;;2.70;;
16737;SDS011;17906;47.684;10.806;2022-10-31T14:19:27;16.25;;;3.42;;
16737;SDS011;17906;47.684;10.806;2022-10-31T14:21:53;14.50;;;3.80;;
16737;SDS011;17906;47.684;10.806;2022-10-31T14:24:31;9.32;;;3.00;;
16737;SDS011;17906;47.684;10.806;2022-10-31T14:27:02;8.18;;;2.78;;
16737;SDS011;17906;47.684;10.806;2022-10-31T14:29:31;9.68;;;3.08;;
16737;SDS011;17906;47.684;10.806;2022-10-31T14:32:04;7.95;;;2.42;;
16737;SDS011;17906;47.684;10.806;2022-10-31T14:34:43;7.35;;;2.65;;
16737;SDS011;17906;47.684;10.806;2022-10-31T14:37:22;10.32;;;2.78;;
16737;SDS011;17906;47.684;10.806;2022-10-31T14:43:12;8.80;;;2.60;;
16737;SDS011;17906;47.684;10.806;2022-10-31T14:45:53;11.45;;;2.90;;
16737;SDS011;17906;47.684;10.806;2022-10-31T14:48:29;11.15;;;3.10;;
16737;SDS011;17906;47.684;10.806;2022-10-31T14:51:10;8.77;;;2.83;;
16737;SDS011;17906;47.684;10.806;2022-10-31T14:53:42;7.65;;;2.30;;
16737;SDS011;17906;47.684;10.806;2022-10-31T14:56:14;8.20;;;2.60;;
16737;SDS011;17906;47.684;10.806;2022-10-31T14:58:48;7.85;;;2.80;;
16737;SDS011;17906;47.684;10.806;2022-10-31T15:01:17;10.15;;;4.13;;
16737;SDS011;17906;47.684;10.806;2022-10-31T15:03:49;12.25;;;3.63;;
16737;SDS011;17906;47.684;10.806;2022-10-31T15:06:17;10.48;;;2.67;;
16737;SDS011;17906;47.684;10.806;2022-10-31T15:08:47;8.15;;;2.88;;